»·PEaware :: DCM717 KOTH-KYKM

DCM717 :: KOTH-KYKM

FLIGHT INFORMATION

Flight Status: Arrived
Operator: Unknown
More flights by this operator :: More flights under this callsign
Pilot: Ty S. (2873)
Aircraft: BOMBARDIER BD-100 CHALLENGER 300
(CL30)
More flights by this aircraft type
Origin: KOTH North Bend Mun
United States
Destination: KYKM Yakima Air Term/Mcallister
United States
More flights between these airports :: More routes between these airports
Route: + SCOTY V121 EUG J143 LTJ V25 YKM
File this flight plan on PilotEdge
Remarks:
Altitude:
(Current/Filed)
41,000ft
Speed:
(Current/Filed)
480kts
Departed: 21-Apr-17 04:46 PM
Arrived: 21-Apr-17 05:45 PM
Distance/Time
Traveled:
246nm/0:59
Distance/Time
To Go:
Arrived

Flight Plot

Page will automatically refresh every two minutes.

Flight plan parsing failed; only flown route is shown


Map Options




Map Legend


Flown Route
Filed Route
Departure Airport
Arrival Airport
Navaid (VOR, NDB)
Fix

Horizontal Profiles

Position Reports

Time Latitude Longitude Heading Altitude Ground
Speed
21-Apr-17 15:57 43.416721 -124.246554 330 24ft 0kts
21-Apr-17 15:58 43.416721 -124.246554 330 24ft 0kts
21-Apr-17 15:59 43.416721 -124.246554 330 24ft 0kts
21-Apr-17 16:00 43.416721 -124.246554 330 24ft 0kts
21-Apr-17 16:01 43.416721 -124.246554 330 24ft 0kts
21-Apr-17 16:02 43.416721 -124.246554 330 24ft 0kts
21-Apr-17 16:03 43.416721 -124.246554 330 24ft 0kts
21-Apr-17 16:04 43.416721 -124.246554 330 24ft 0kts
21-Apr-17 16:05 43.416721 -124.246554 330 24ft 0kts
21-Apr-17 16:06 43.416721 -124.246554 330 24ft 0kts
21-Apr-17 16:07 43.416721 -124.246554 330 24ft 0kts
21-Apr-17 16:07 43.416721 -124.246554 330 24ft 0kts
21-Apr-17 16:09 43.416721 -124.246554 330 24ft 0kts
21-Apr-17 16:10 43.416721 -124.246554 330 24ft 0kts
21-Apr-17 16:10 43.416721 -124.246554 330 24ft 0kts
21-Apr-17 16:12 43.416721 -124.246554 330 24ft 0kts
21-Apr-17 16:13 43.416721 -124.246554 330 24ft 0kts
21-Apr-17 16:14 43.416721 -124.246554 330 24ft 0kts
21-Apr-17 16:15 43.416721 -124.246554 330 24ft 0kts
21-Apr-17 16:16 43.416721 -124.246554 330 24ft 0kts
21-Apr-17 16:16 43.416721 -124.246554 330 24ft 0kts
21-Apr-17 16:18 43.416721 -124.246554 330 24ft 0kts
21-Apr-17 16:18 43.416721 -124.246554 330 24ft 0kts
21-Apr-17 16:19 43.416721 -124.246554 330 24ft 0kts
21-Apr-17 16:21 43.416721 -124.246554 330 24ft 0kts
21-Apr-17 16:21 43.416721 -124.246554 330 24ft 0kts
21-Apr-17 16:22 43.416721 -124.246554 330 24ft 0kts
21-Apr-17 16:24 43.416721 -124.246554 330 24ft 0kts
21-Apr-17 16:24 43.416721 -124.246554 330 24ft 0kts
21-Apr-17 16:25 43.416721 -124.246554 330 24ft 0kts
21-Apr-17 16:26 43.416721 -124.246554 330 24ft 0kts
21-Apr-17 16:27 43.416721 -124.246554 330 24ft 0kts
21-Apr-17 16:28 43.416721 -124.246554 330 24ft 0kts
21-Apr-17 16:29 43.416721 -124.246554 330 24ft 0kts
21-Apr-17 16:30 43.416721 -124.246554 330 24ft 0kts
21-Apr-17 16:31 43.416721 -124.246554 330 24ft 0kts
21-Apr-17 16:32 43.416721 -124.246554 330 24ft 0kts
21-Apr-17 16:33 43.416721 -124.246554 330 24ft 0kts
21-Apr-17 16:34 43.416721 -124.246554 330 24ft 0kts
21-Apr-17 16:35 43.416721 -124.246554 330 24ft 0kts
21-Apr-17 16:36 43.416721 -124.246554 330 24ft 0kts
21-Apr-17 16:37 43.416721 -124.246554 330 24ft 0kts
21-Apr-17 16:38 43.416724 -124.246557 331 24ft 1kts
21-Apr-17 16:39 43.418555 -124.246657 329 24ft 13kts
21-Apr-17 16:40 43.420639 -124.243085 60 24ft 15kts
21-Apr-17 16:41 43.421761 -124.240569 24 24ft 8kts
21-Apr-17 16:42 43.421830 -124.240543 7 24ft 0kts
21-Apr-17 16:43 43.421830 -124.240543 7 24ft 0kts
21-Apr-17 16:44 43.421830 -124.240543 7 24ft 0kts
21-Apr-17 16:45 43.421830 -124.240543 7 24ft 0kts
21-Apr-17 16:46 43.422628 -124.241292 253 23ft 10kts
21-Apr-17 16:47 43.415753 -124.283835 280 1940ft 167kts
21-Apr-17 16:48 43.424733 -124.262900 145 4935ft 180kts
21-Apr-17 16:49 43.416967 -124.187931 81 7157ft 252kts
21-Apr-17 16:50 43.461250 -124.108973 42 10559ft 281kts
21-Apr-17 16:51 43.526659 -124.021878 42 14655ft 358kts
21-Apr-17 16:52 43.600661 -123.923441 41 19119ft 390kts
21-Apr-17 16:53 43.680915 -123.816516 41 22847ft 417kts
21-Apr-17 16:54 43.765688 -123.703155 41 23236ft 442kts
21-Apr-17 16:55 43.852758 -123.586165 40 26884ft 448kts
21-Apr-17 16:56 43.943781 -123.463359 40 29556ft 469kts
21-Apr-17 16:57 44.036528 -123.337646 41 32662ft 468kts
21-Apr-17 16:58 44.115688 -123.229930 40 35104ft 465kts
21-Apr-17 16:59 44.209173 -123.109576 38 37740ft 461kts
21-Apr-17 17:00 44.302088 -122.989742 37 40352ft 453kts
21-Apr-17 17:01 44.395907 -122.868403 37 41193ft 482kts
21-Apr-17 17:02 44.495806 -122.738462 37 41191ft 498kts
21-Apr-17 17:03 44.596038 -122.607388 37 41194ft 493kts
21-Apr-17 17:04 44.695034 -122.477334 37 41197ft 488kts
21-Apr-17 17:05 44.792606 -122.348532 38 41204ft 485kts
21-Apr-17 17:06 44.889793 -122.219623 38 40635ft 485kts
21-Apr-17 17:07 44.987500 -122.089371 38 39802ft 484kts
21-Apr-17 17:08 45.084224 -121.959789 38 38927ft 478kts
21-Apr-17 17:09 45.170736 -121.843362 38 36912ft 478kts
21-Apr-17 17:10 45.266384 -121.714061 38 34103ft 483kts
21-Apr-17 17:11 45.363613 -121.581997 39 32547ft 482kts
21-Apr-17 17:12 45.459024 -121.451746 40 30688ft 475kts
21-Apr-17 17:13 45.549361 -121.327836 42 28416ft 462kts
21-Apr-17 17:14 45.639718 -121.203266 44 26043ft 445kts
21-Apr-17 17:15 45.730712 -121.091884 29 23630ft 429kts
21-Apr-17 17:16 45.832353 -121.012232 29 20776ft 408kts
21-Apr-17 17:17 45.928807 -120.938493 30 17936ft 382kts
21-Apr-17 17:18 46.018608 -120.869992 30 15038ft 356kts
21-Apr-17 17:19 46.100410 -120.807452 30 11973ft 332kts
21-Apr-17 17:20 46.178706 -120.747467 30 11034ft 325kts
21-Apr-17 17:21 46.256061 -120.688056 30 10669ft 299kts
21-Apr-17 17:22 46.329598 -120.654342 355 9488ft 282kts
21-Apr-17 17:23 46.406733 -120.667782 354 8753ft 278kts
21-Apr-17 17:24 46.481951 -120.680872 355 8753ft 269kts
21-Apr-17 17:25 46.555782 -120.693761 355 8753ft 266kts
21-Apr-17 17:26 46.629325 -120.706606 355 8755ft 270kts
21-Apr-17 17:27 46.704509 -120.719629 355 8754ft 275kts
21-Apr-17 17:28 46.776854 -120.710919 52 8752ft 267kts
21-Apr-17 17:29 46.763899 -120.611990 114 8752ft 267kts
21-Apr-17 17:30 46.731473 -120.514682 114 8752ft 266kts
21-Apr-17 17:31 46.699119 -120.418138 114 8751ft 257kts
21-Apr-17 17:32 46.671882 -120.337604 115 8744ft 198kts
21-Apr-17 17:33 46.645434 -120.259664 115 8757ft 232kts
21-Apr-17 17:34 46.616719 -120.174565 114 8753ft 232kts
21-Apr-17 17:35 46.582658 -120.099542 164 8696ft 223kts
21-Apr-17 17:36 46.529941 -120.141611 215 7424ft 224kts
21-Apr-17 17:38 46.495562 -120.210181 256 5905ft 212kts
21-Apr-17 17:39 46.504979 -120.282680 290 4420ft 162kts
21-Apr-17 17:40 46.518814 -120.340976 290 3108ft 150kts
21-Apr-17 17:41 46.531907 -120.394799 289 2035ft 128kts
21-Apr-17 17:42 46.543705 -120.444531 280 2157ft 143kts
21-Apr-17 17:43 46.546688 -120.501965 274 2319ft 141kts
21-Apr-17 17:44 46.551215 -120.559823 278 2060ft 146kts
21-Apr-17 17:45 46.572034 -120.594865 47 1810ft 127kts
21-Apr-17 17:46 46.570468 -120.551182 110 1102ft 81kts
21-Apr-17 17:47 46.569343 -120.542236 319 1102ft 9kts
21-Apr-17 17:48 46.570705 -120.547476 290 1102ft 17kts
21-Apr-17 17:49 46.572173 -120.552854 345 1101ft 12kts
21-Apr-17 17:50 46.572619 -120.552811 309 1102ft 0kts
21-Apr-17 17:51 46.572619 -120.552811 309 1102ft 0kts
21-Apr-17 17:52 46.572619 -120.552811 309 1102ft 0kts
21-Apr-17 17:53 46.572619 -120.552811 309 1102ft 0kts
21-Apr-17 17:54 46.572619 -120.552811 309 1102ft 0kts
21-Apr-17 17:55 46.572619 -120.552811 309 1102ft 0kts
21-Apr-17 17:56 46.572619 -120.552811 309 1102ft 0kts
21-Apr-17 17:57 46.572619 -120.552811 309 1102ft 0kts
21-Apr-17 17:58 46.572619 -120.552811 309 1102ft 0kts
21-Apr-17 17:59 46.572619 -120.552811 309 1102ft 0kts
21-Apr-17 18:00 46.572619 -120.552811 309 1102ft 0kts
21-Apr-17 18:01 46.572619 -120.552811 309 1102ft 0kts

Navigation Log

Ident Type
Flight plan parsing failed, navigation log unavailable